OEDF/DMM METAR and TAF weather

Enter ICAO airport designator
Station Type Date Time Source
OEDF METAR 2019/04/22 18:00 UTC NOAA

OEDF 221800Z 34015KT CAVOK 20/08 Q1012 NOSIG


Station Type Date Time Source
OEDF Decoded METAR 2019/04/22 18:00 UTC NOAA

Dammam-King Fahd International Airport, Saudi Arabia (OEDF) 26-28N 049-47E
Apr 22, 2019 - 02:00 PM EDT / 2019.04.22 1800 UTC
Wind: from the NNW (340 degrees) at 17 MPH (15 KT):0
Visibility: greater than 7 mile(s):0
Temperature: 68 F (20 C)
Dew Point: 46 F (8 C)
Relative Humidity: 45%
Pressure (altimeter): 29.88 in. Hg (1012 hPa)
ob: OEDF 221800Z 34015KT CAVOK 20/08 Q1012 NOSIG
cycle: 18

Station Type Date Time Source
OEDF TAF 2019/04/22 18:06 UTC NOAA

TAF TAF OEDF 221430Z 2218/2324 33012KT 8000 NSC
BECMG 2305/2307 36015G25KT
TEMPO 2306/2312 5000 BLDU

Example: see airport list